createdAt,value
2023-05-15T14:23:46.953Z,600.00
2023-05-15T14:24:46.928Z,600.00
2023-05-15T14:25:46.929Z,600.00
2023-05-15T14:26:46.918Z,600.00
2023-05-15T14:27:46.893Z,600.00
2023-05-15T14:28:46.939Z,453.00
2023-05-15T14:29:46.893Z,400.00
2023-05-15T14:30:46.887Z,400.00
2023-05-15T14:31:46.900Z,400.00
2023-05-15T14:32:46.909Z,400.00
2023-05-15T14:33:46.848Z,400.00
2023-05-15T14:34:46.863Z,400.00
2023-05-15T14:35:46.902Z,400.00
2023-05-15T14:36:46.836Z,400.00
2023-05-15T14:37:46.816Z,400.00
2023-05-15T14:38:46.849Z,400.00
2023-05-15T14:39:46.818Z,400.00
2023-05-15T14:40:46.834Z,400.00
2023-05-15T14:41:46.807Z,400.00
2023-05-15T14:42:46.820Z,400.00
2023-05-15T14:43:46.783Z,400.00
2023-05-15T14:44:46.793Z,400.00
2023-05-15T14:45:46.805Z,400.00
2023-05-15T14:46:46.853Z,400.00
2023-05-15T14:47:46.802Z,400.00
2023-05-15T14:48:46.780Z,400.00
2023-05-15T14:49:46.781Z,400.00
2023-05-15T14:50:46.777Z,400.00
2023-05-15T14:51:46.741Z,400.00
2023-05-15T14:52:46.738Z,400.00
2023-05-15T14:53:46.739Z,400.00
2023-05-15T14:54:56.897Z,400.00
2023-05-15T14:55:47.700Z,400.00
2023-05-15T14:56:46.688Z,400.00
2023-05-15T14:57:46.716Z,400.00
2023-05-15T14:58:46.695Z,400.00
2023-05-15T14:59:46.682Z,400.00
2023-05-15T15:00:46.645Z,400.00
2023-05-15T15:01:46.694Z,400.00
2023-05-15T15:02:46.786Z,400.00
2023-05-15T15:03:47.752Z,400.00
2023-05-15T15:04:46.649Z,400.00
2023-05-15T15:05:46.661Z,400.00
2023-05-15T15:06:46.624Z,400.00
2023-05-15T15:07:46.636Z,400.00
2023-05-15T15:08:46.630Z,400.00
2023-05-15T15:09:46.645Z,400.00
2023-05-15T15:10:47.112Z,400.00
2023-05-15T15:11:46.573Z,400.00
2023-05-15T15:12:46.645Z,400.00
2023-05-15T15:13:46.570Z,400.00
2023-05-15T15:14:46.544Z,400.00
2023-05-15T15:15:46.619Z,400.00
2023-05-15T15:16:46.755Z,400.00
2023-05-15T15:17:46.579Z,400.00
2023-05-15T15:18:46.547Z,400.00
2023-05-15T15:19:46.577Z,400.00
2023-05-15T15:20:46.518Z,400.00
2023-05-15T15:21:46.554Z,400.00
2023-05-15T15:22:46.518Z,400.00
2023-05-15T15:23:46.499Z,404.00
2023-05-15T15:24:46.501Z,432.00
2023-05-15T15:25:46.523Z,464.00
2023-05-15T15:26:46.501Z,493.00
2023-05-15T15:27:46.502Z,519.00
2023-05-15T15:28:46.460Z,551.00
2023-05-15T15:29:46.493Z,598.00
2023-05-15T15:30:46.462Z,601.00
2023-05-15T15:31:46.551Z,603.00
2023-05-15T15:32:46.485Z,603.00
2023-05-15T15:33:46.422Z,600.00
2023-05-15T15:34:46.437Z,601.00
2023-05-15T15:35:46.421Z,605.00
2023-05-15T15:36:46.413Z,601.00
2023-05-15T15:37:46.430Z,600.00
2023-05-15T15:38:46.415Z,600.00
2023-05-15T15:39:46.475Z,600.00
2023-05-15T15:40:46.451Z,602.00
2023-05-15T15:41:46.515Z,601.00
2023-05-15T15:42:46.513Z,603.00
2023-05-15T15:43:46.548Z,600.00
2023-05-15T15:44:46.571Z,605.00
2023-05-15T15:45:46.648Z,601.00
2023-05-15T15:46:46.572Z,601.00
2023-05-15T15:47:46.660Z,600.00
2023-05-15T15:48:46.606Z,600.00
2023-05-15T15:49:46.630Z,600.00
2023-05-15T15:50:46.658Z,601.00
2023-05-15T15:51:46.660Z,604.00
2023-05-15T15:52:46.681Z,600.00
2023-05-15T15:53:46.708Z,600.00
2023-05-15T15:54:46.742Z,602.00
2023-05-15T15:55:47.356Z,603.00
2023-05-15T15:56:46.819Z,606.00
2023-05-15T15:57:46.861Z,602.00
2023-05-15T15:58:46.879Z,601.00
2023-05-15T15:59:46.879Z,601.00
2023-05-15T16:00:46.872Z,600.00
2023-05-15T16:01:47.140Z,601.00
2023-05-15T16:02:46.988Z,600.00
2023-05-15T16:03:46.984Z,603.00
2023-05-15T16:04:46.973Z,602.00
2023-05-15T16:05:46.966Z,602.00
2023-05-15T16:06:46.958Z,606.00
2023-05-15T16:07:47.009Z,601.00
2023-05-15T16:08:47.041Z,602.00
2023-05-15T16:09:51.421Z,602.00
2023-05-15T16:10:48.064Z,603.00
2023-05-15T16:11:47.054Z,603.00
2023-05-15T16:12:46.997Z,606.00
2023-05-15T16:13:47.056Z,608.00
2023-05-15T16:14:47.008Z,613.00
2023-05-15T16:15:47.548Z,609.00
2023-05-15T16:16:47.038Z,611.00
2023-05-15T16:17:47.001Z,605.00
2023-05-15T16:18:47.036Z,603.00
2023-05-15T16:19:46.977Z,608.00
2023-05-15T16:20:46.993Z,605.00
2023-05-15T16:21:46.976Z,605.00
2023-05-15T16:22:46.993Z,604.00
2023-05-15T16:23:46.932Z,606.00
2023-05-15T16:24:46.966Z,601.00
2023-05-15T16:25:46.946Z,604.00
2023-05-15T16:26:46.925Z,600.00
2023-05-15T16:27:46.945Z,604.00
2023-05-15T16:28:46.911Z,599.00
2023-05-15T16:29:46.930Z,603.00
2023-05-15T16:30:49.483Z,606.00
2023-05-15T16:31:47.035Z,600.00
2023-05-15T16:32:47.026Z,604.00
2023-05-15T16:33:46.933Z,605.00
2023-05-15T16:34:46.904Z,604.00
2023-05-15T16:35:46.883Z,600.00
2023-05-15T16:36:46.901Z,601.00
2023-05-15T16:37:46.911Z,600.00
2023-05-15T16:38:46.879Z,605.00
2023-05-15T16:39:46.882Z,606.00
2023-05-15T16:40:46.919Z,607.00
2023-05-15T16:41:47.030Z,603.00
2023-05-15T16:42:46.878Z,602.00
2023-05-15T16:43:46.864Z,604.00
2023-05-15T16:44:46.875Z,603.00
2023-05-15T16:45:46.846Z,602.00
2023-05-15T16:46:46.918Z,600.00
2023-05-15T16:47:46.872Z,607.00
2023-05-15T16:48:46.813Z,610.00
2023-05-15T16:49:49.757Z,620.00
2023-05-15T16:50:46.830Z,620.00
2023-05-15T16:51:46.818Z,621.00
2023-05-15T16:52:46.789Z,621.00
2023-05-15T16:53:46.817Z,623.00
2023-05-15T16:54:46.826Z,628.00
2023-05-15T16:55:46.769Z,626.00
2023-05-15T16:56:46.767Z,628.00
2023-05-15T16:57:46.736Z,635.00
2023-05-15T16:58:46.759Z,638.00
2023-05-15T16:59:46.733Z,646.00
2023-05-15T17:00:46.749Z,645.00
2023-05-15T17:01:46.740Z,654.00
2023-05-15T17:02:46.792Z,652.00
2023-05-15T17:03:46.914Z,650.00
2023-05-15T17:04:46.715Z,649.00
2023-05-15T17:05:47.917Z,647.00
2023-05-15T17:06:46.698Z,648.00
2023-05-15T17:07:46.695Z,651.00
2023-05-15T17:08:46.711Z,653.00
2023-05-15T17:09:46.680Z,648.00
2023-05-15T17:10:46.659Z,647.00
2023-05-15T17:11:46.665Z,644.00
2023-05-15T17:12:46.654Z,652.00
2023-05-15T17:13:46.688Z,650.00
2023-05-15T17:14:46.695Z,647.00
2023-05-15T17:15:46.698Z,644.00
2023-05-15T17:16:46.631Z,641.00
2023-05-15T17:17:46.670Z,643.00
2023-05-15T17:18:46.642Z,650.00
2023-05-15T17:19:46.622Z,635.00
2023-05-15T17:20:46.591Z,621.00
2023-05-15T17:21:46.596Z,621.00
2023-05-15T17:22:46.580Z,621.00
2023-05-15T17:23:46.585Z,617.00
2023-05-15T17:24:51.435Z,613.00
2023-05-15T17:25:47.561Z,611.00
2023-05-15T17:26:46.579Z,603.00
2023-05-15T17:27:46.576Z,593.00
2023-05-15T17:28:46.566Z,578.00
2023-05-15T17:29:46.575Z,570.00
2023-05-15T17:30:46.520Z,595.00
2023-05-15T17:31:46.625Z,598.00
2023-05-15T17:32:46.530Z,605.00
2023-05-15T17:33:47.656Z,603.00
2023-05-15T17:34:46.509Z,600.00
2023-05-15T17:35:46.527Z,600.00
2023-05-15T17:36:46.483Z,600.00
2023-05-15T17:37:46.500Z,600.00
2023-05-15T17:38:46.479Z,600.00
2023-05-15T17:39:46.471Z,600.00
2023-05-15T17:40:46.443Z,609.00
2023-05-15T17:41:46.452Z,601.00
2023-05-15T17:42:46.436Z,602.00
2023-05-15T17:43:46.458Z,600.00
2023-05-15T17:44:46.418Z,601.00
2023-05-15T17:45:46.463Z,601.00
2023-05-15T17:46:46.413Z,601.00
2023-05-15T17:47:46.460Z,600.00
2023-05-15T17:48:46.407Z,600.00
2023-05-15T17:49:46.368Z,600.00
2023-05-15T17:50:46.378Z,601.00
2023-05-15T17:51:46.406Z,601.00
2023-05-15T17:52:46.450Z,600.00
2023-05-15T17:53:46.430Z,605.00
2023-05-15T17:54:46.446Z,602.00
2023-05-15T17:55:46.726Z,603.00
2023-05-15T17:56:46.529Z,600.00
2023-05-15T17:57:47.323Z,602.00
2023-05-15T17:58:46.599Z,603.00
2023-05-15T17:59:46.644Z,603.00
2023-05-15T18:00:46.648Z,600.00
2023-05-15T18:01:46.739Z,607.00
2023-05-15T18:02:46.759Z,607.00
2023-05-15T18:03:46.812Z,605.00
2023-05-15T18:04:46.803Z,606.00
2023-05-15T18:05:46.869Z,605.00
2023-05-15T18:06:47.790Z,604.00
2023-05-15T18:07:46.962Z,605.00
2023-05-15T18:08:47.011Z,604.00
2023-05-15T18:09:47.005Z,607.00
2023-05-15T18:10:47.067Z,604.00
2023-05-15T18:11:47.136Z,606.00
2023-05-15T18:12:47.135Z,606.00
2023-05-15T18:13:47.211Z,603.00
2023-05-15T18:14:47.244Z,608.00
2023-05-15T18:15:47.323Z,606.00
2023-05-15T18:16:47.324Z,600.00
2023-05-15T18:17:47.441Z,603.00
2023-05-15T18:18:47.419Z,603.00
2023-05-15T18:19:47.423Z,603.00
2023-05-15T18:20:47.458Z,600.00
2023-05-15T18:21:47.477Z,603.00
2023-05-15T18:22:47.548Z,609.00
2023-05-15T18:23:47.590Z,608.00
2023-05-15T18:24:47.617Z,607.00
2023-05-15T18:25:47.677Z,606.00
2023-05-15T18:26:47.732Z,611.00
2023-05-15T18:27:47.827Z,610.00
2023-05-15T18:28:47.854Z,614.00
2023-05-15T18:29:47.945Z,616.00
2023-05-15T18:30:47.979Z,621.00
2023-05-15T18:31:48.099Z,625.00
2023-05-15T18:32:48.158Z,628.00
2023-05-15T18:33:48.136Z,627.00
2023-05-15T18:34:48.201Z,629.00
2023-05-15T18:35:48.322Z,636.00
2023-05-15T18:36:48.364Z,640.00
2023-05-15T18:37:48.433Z,638.00
2023-05-15T18:38:48.471Z,646.00
2023-05-15T18:39:48.550Z,649.00
2023-05-15T18:40:48.598Z,649.00
2023-05-15T18:41:48.682Z,654.00
2023-05-15T18:42:48.713Z,653.00
2023-05-15T18:43:48.783Z,653.00
2023-05-15T18:44:48.849Z,659.00
2023-05-15T18:45:48.921Z,661.00
2023-05-15T18:46:49.040Z,665.00
2023-05-15T18:47:49.156Z,662.00
2023-05-15T18:48:49.078Z,670.00
2023-05-15T18:49:49.176Z,673.00
2023-05-15T18:50:49.233Z,679.00
2023-05-15T18:51:49.272Z,685.00
2023-05-15T18:52:49.359Z,690.00
2023-05-15T18:53:49.424Z,682.00
2023-05-15T18:54:49.459Z,689.00
2023-05-15T18:55:49.527Z,698.00
2023-05-15T18:56:49.567Z,688.00
2023-05-15T18:57:49.623Z,701.00
2023-05-15T18:58:49.704Z,705.00
2023-05-15T18:59:49.747Z,698.00
2023-05-15T19:00:49.853Z,707.00
2023-05-15T19:01:49.924Z,709.00
2023-05-15T19:02:50.011Z,701.00
2023-05-15T19:03:49.969Z,701.00
2023-05-15T19:04:50.014Z,699.00
2023-05-15T19:05:50.110Z,702.00
2023-05-15T19:06:50.160Z,702.00
2023-05-15T19:07:50.185Z,706.00
2023-05-15T19:08:50.244Z,713.00
2023-05-15T19:09:50.326Z,716.00
2023-05-15T19:10:50.364Z,718.00
2023-05-15T19:11:50.422Z,726.00
2023-05-15T19:12:50.511Z,712.00
2023-05-15T19:13:50.539Z,717.00
2023-05-15T19:14:50.627Z,726.00
2023-05-15T19:15:50.665Z,726.00
2023-05-15T19:16:50.756Z,735.00
2023-05-15T19:17:50.819Z,728.00
2023-05-15T19:18:50.954Z,738.00
2023-05-15T19:19:50.907Z,741.00
2023-05-15T19:20:50.967Z,741.00
2023-05-15T19:21:50.988Z,743.00
2023-05-15T19:22:51.014Z,738.00
2023-05-15T19:23:51.076Z,748.00
2023-05-15T19:24:51.138Z,742.00
2023-05-15T19:25:51.178Z,753.00
2023-05-15T19:26:51.249Z,750.00
2023-05-15T19:27:51.339Z,746.00
2023-05-15T19:28:51.396Z,751.00
2023-05-15T19:29:51.439Z,751.00
2023-05-15T19:30:51.481Z,760.00
2023-05-15T19:31:51.590Z,757.00
2023-05-15T19:32:51.675Z,760.00
2023-05-15T19:33:51.697Z,759.00
2023-05-15T19:34:51.718Z,766.00
2023-05-15T19:35:51.832Z,762.00
2023-05-15T19:36:51.814Z,772.00
2023-05-15T19:37:51.883Z,775.00
2023-05-15T19:38:51.891Z,775.00
2023-05-15T19:39:51.898Z,786.00
2023-05-15T19:40:51.925Z,780.00
2023-05-15T19:41:51.954Z,783.00
2023-05-15T19:42:51.960Z,774.00
2023-05-15T19:43:51.976Z,779.00
2023-05-15T19:44:51.962Z,779.00
2023-05-15T19:45:52.053Z,787.00
2023-05-15T19:46:53.817Z,783.00
2023-05-15T19:47:52.090Z,771.00
2023-05-15T19:48:52.165Z,787.00
2023-05-15T19:49:52.231Z,787.00
2023-05-15T19:50:52.285Z,775.00
2023-05-15T19:51:52.350Z,778.00
2023-05-15T19:52:52.384Z,769.00
2023-05-15T19:53:52.461Z,773.00
2023-05-15T19:54:52.530Z,775.00
2023-05-15T19:55:52.634Z,781.00
2023-05-15T19:56:52.647Z,767.00
2023-05-15T19:57:52.726Z,769.00
2023-05-15T19:58:52.805Z,761.00
2023-05-15T19:59:52.892Z,770.00
2023-05-15T20:00:52.920Z,761.00
2023-05-15T20:01:53.058Z,775.00
2023-05-15T20:02:53.109Z,772.00
2023-05-15T20:03:53.199Z,772.00
2023-05-15T20:04:53.181Z,775.00
2023-05-15T20:05:53.213Z,766.00
2023-05-15T20:06:53.295Z,769.00
2023-05-15T20:07:53.297Z,758.00
2023-05-15T20:08:53.362Z,764.00
2023-05-15T20:09:53.364Z,761.00
2023-05-15T20:10:53.365Z,759.00
2023-05-15T20:11:53.391Z,761.00
2023-05-15T20:12:53.414Z,755.00
2023-05-15T20:13:53.402Z,748.00
2023-05-15T20:14:53.384Z,759.00
2023-05-15T20:15:53.400Z,751.00
2023-05-15T20:16:53.400Z,747.00
2023-05-15T20:17:53.424Z,736.00
2023-05-15T20:18:53.460Z,748.00
2023-05-15T20:19:53.388Z,731.00
2023-05-15T20:20:53.387Z,728.00
2023-05-15T20:21:53.383Z,730.00
2023-05-15T20:22:53.406Z,731.00
2023-05-15T20:23:53.421Z,727.00
2023-05-15T20:24:53.424Z,717.00
2023-05-15T20:25:53.473Z,705.00
2023-05-15T20:26:53.445Z,711.00
2023-05-15T20:27:53.488Z,707.00
2023-05-15T20:28:53.527Z,704.00
2023-05-15T20:29:53.563Z,703.00
2023-05-15T20:30:53.544Z,708.00
2023-05-15T20:31:53.703Z,713.00
2023-05-15T20:32:53.732Z,705.00
2023-05-15T20:33:53.676Z,717.00
2023-05-15T20:34:53.731Z,711.00
2023-05-15T20:35:53.707Z,716.00
2023-05-15T20:36:53.656Z,692.00
2023-05-15T20:37:53.668Z,692.00
2023-05-15T20:38:53.662Z,700.00
2023-05-15T20:39:53.664Z,695.00
2023-05-15T20:40:53.694Z,699.00
2023-05-15T20:41:53.665Z,691.00
2023-05-15T20:42:53.674Z,695.00
2023-05-15T20:43:53.695Z,698.00
2023-05-15T20:44:53.692Z,690.00
2023-05-15T20:45:53.704Z,685.00
2023-05-15T20:46:53.701Z,696.00
2023-05-15T20:47:53.710Z,688.00
2023-05-15T20:48:53.687Z,703.00
2023-05-15T20:49:53.692Z,697.00
2023-05-15T20:50:53.695Z,701.00
2023-05-15T20:51:53.677Z,689.00
2023-05-15T20:52:53.756Z,681.00
2023-05-15T20:53:53.696Z,680.00
2023-05-15T20:54:53.705Z,672.00
2023-05-15T20:55:53.713Z,679.00
2023-05-15T20:56:53.746Z,683.00
2023-05-15T20:57:53.749Z,680.00
2023-05-15T20:58:53.730Z,667.00
2023-05-15T20:59:53.764Z,673.00
2023-05-15T21:00:53.779Z,677.00
2023-05-15T21:01:53.752Z,669.00
2023-05-15T21:02:53.884Z,666.00
2023-05-15T21:03:53.905Z,674.00
2023-05-15T21:04:53.793Z,678.00
2023-05-15T21:05:56.023Z,684.00
2023-05-15T21:06:53.784Z,693.00
2023-05-15T21:07:53.790Z,679.00
2023-05-15T21:08:53.772Z,680.00
2023-05-15T21:09:53.734Z,695.00
2023-05-15T21:10:53.761Z,696.00
2023-05-15T21:11:53.730Z,699.00
2023-05-15T21:12:53.715Z,707.00
2023-05-15T21:13:53.721Z,711.00
2023-05-15T21:14:53.726Z,705.00
2023-05-15T21:15:53.710Z,705.00
2023-05-15T21:16:53.734Z,707.00
2023-05-15T21:17:53.761Z,701.00
2023-05-15T21:18:53.694Z,715.00
2023-05-15T21:19:53.698Z,715.00
2023-05-15T21:20:53.660Z,712.00
2023-05-15T21:21:53.656Z,723.00
2023-05-15T21:22:53.679Z,726.00
2023-05-15T21:23:53.669Z,725.00
2023-05-15T21:24:53.657Z,714.00
2023-05-15T21:25:53.665Z,721.00
2023-05-15T21:26:53.634Z,721.00
2023-05-15T21:27:53.645Z,724.00
2023-05-15T21:28:53.614Z,723.00
2023-05-15T21:29:53.606Z,720.00
2023-05-15T21:30:53.656Z,718.00
2023-05-15T21:31:53.596Z,709.00
2023-05-15T21:32:53.637Z,701.00
2023-05-15T21:33:53.585Z,707.00
2023-05-15T21:34:53.583Z,709.00
2023-05-15T21:35:53.583Z,705.00
2023-05-15T21:36:53.590Z,706.00
2023-05-15T21:37:53.548Z,699.00
2023-05-15T21:38:53.576Z,698.00
2023-05-15T21:39:53.561Z,706.00
2023-05-15T21:40:53.555Z,705.00
2023-05-15T21:41:53.554Z,704.00
2023-05-15T21:42:53.547Z,715.00
2023-05-15T21:43:53.505Z,707.00
2023-05-15T21:44:53.539Z,703.00
2023-05-15T21:45:53.490Z,704.00
2023-05-15T21:46:53.535Z,709.00
2023-05-15T21:47:53.519Z,709.00
2023-05-15T21:48:53.508Z,716.00
2023-05-15T21:49:54.260Z,715.00
2023-05-15T21:50:53.454Z,718.00
2023-05-15T21:51:53.463Z,718.00
2023-05-15T21:52:53.445Z,723.00
2023-05-15T21:53:53.463Z,728.00
2023-05-15T21:54:53.457Z,730.00
2023-05-15T21:55:53.455Z,729.00
2023-05-15T21:56:53.467Z,730.00
2023-05-15T21:57:53.459Z,742.00
2023-05-15T21:58:53.410Z,736.00
2023-05-15T21:59:53.431Z,741.00
2023-05-15T22:00:53.445Z,749.00
2023-05-15T22:01:53.454Z,762.00
2023-05-15T22:02:53.457Z,760.00
2023-05-15T22:03:53.386Z,760.00
2023-05-15T22:04:53.383Z,754.00
2023-05-15T22:05:53.376Z,766.00
2023-05-15T22:06:53.357Z,759.00
2023-05-15T22:07:53.454Z,761.00
2023-05-15T22:08:53.336Z,763.00
2023-05-15T22:09:53.344Z,758.00
2023-05-15T22:10:53.382Z,774.00
2023-05-15T22:11:53.327Z,778.00
2023-05-15T22:12:53.349Z,772.00
2023-05-15T22:13:53.314Z,782.00
2023-05-15T22:14:58.808Z,775.00
2023-05-15T22:15:54.394Z,776.00
2023-05-15T22:16:53.535Z,775.00
2023-05-15T22:17:53.339Z,762.00
2023-05-15T22:18:53.283Z,765.00
2023-05-15T22:19:53.273Z,756.00
2023-05-15T22:20:53.394Z,747.00
2023-05-15T22:21:53.287Z,749.00
2023-05-15T22:22:53.276Z,748.00
2023-05-15T22:23:53.260Z,738.00
2023-05-15T22:24:53.245Z,738.00
2023-05-15T22:25:53.267Z,742.00
2023-05-15T22:26:53.233Z,736.00
2023-05-15T22:27:53.235Z,724.00
2023-05-15T22:28:53.231Z,734.00
2023-05-15T22:29:53.229Z,733.00
2023-05-15T22:30:53.245Z,721.00
2023-05-15T22:31:53.282Z,724.00
2023-05-15T22:32:53.231Z,719.00
2023-05-15T22:33:53.199Z,719.00
2023-05-15T22:34:53.252Z,718.00
2023-05-15T22:35:53.294Z,724.00
2023-05-15T22:37:53.334Z,714.00
2023-05-15T22:38:53.412Z,707.00
2023-05-15T22:39:53.449Z,714.00
2023-05-15T22:40:53.454Z,717.00
2023-05-15T22:41:53.471Z,711.00
2023-05-15T22:42:53.522Z,705.00
2023-05-15T22:43:53.582Z,711.00
2023-05-15T22:44:53.599Z,710.00
2023-05-15T22:45:53.689Z,702.00
2023-05-15T22:46:53.691Z,710.00
2023-05-15T22:47:53.744Z,711.00
2023-05-15T22:48:53.750Z,724.00
2023-05-15T22:49:53.801Z,714.00
2023-05-15T22:50:53.829Z,727.00
2023-05-15T22:51:53.848Z,724.00
2023-05-15T22:52:53.893Z,723.00
2023-05-15T22:53:53.914Z,729.00
2023-05-15T22:54:53.960Z,739.00
2023-05-15T22:55:53.962Z,736.00
2023-05-15T22:56:54.011Z,739.00
2023-05-15T22:57:54.056Z,743.00
2023-05-15T22:58:54.059Z,741.00
2023-05-15T22:59:54.096Z,741.00
2023-05-15T23:00:54.173Z,729.00
2023-05-15T23:01:54.201Z,745.00
2023-05-15T23:02:54.214Z,751.00
2023-05-15T23:03:54.217Z,727.00
2023-05-15T23:04:54.237Z,740.00
2023-05-15T23:05:54.280Z,738.00
2023-05-15T23:06:54.277Z,728.00
2023-05-15T23:07:54.351Z,728.00
2023-05-15T23:08:54.361Z,738.00
2023-05-15T23:09:54.395Z,729.00
2023-05-15T23:10:54.428Z,730.00
2023-05-15T23:11:54.450Z,724.00
2023-05-15T23:12:54.485Z,718.00
2023-05-15T23:13:54.525Z,730.00
2023-05-15T23:14:54.591Z,739.00
2023-05-15T23:15:54.647Z,726.00
2023-05-15T23:16:54.642Z,732.00
2023-05-15T23:17:54.711Z,725.00
2023-05-15T23:18:54.771Z,732.00
2023-05-15T23:19:54.791Z,733.00
2023-05-15T23:20:54.806Z,731.00
2023-05-15T23:21:54.853Z,738.00
2023-05-15T23:22:54.910Z,739.00
2023-05-15T23:23:54.946Z,739.00
2023-05-15T23:24:54.977Z,736.00
2023-05-15T23:25:55.021Z,746.00
2023-05-15T23:26:55.058Z,747.00
2023-05-15T23:27:55.150Z,745.00
2023-05-15T23:28:55.150Z,752.00
2023-05-15T23:29:55.213Z,738.00
2023-05-15T23:30:55.258Z,758.00
2023-05-15T23:31:55.382Z,748.00
2023-05-15T23:32:55.399Z,746.00
2023-05-15T23:33:55.344Z,750.00
2023-05-15T23:34:55.408Z,745.00
2023-05-15T23:35:55.459Z,751.00
2023-05-15T23:36:55.484Z,756.00
2023-05-15T23:37:55.545Z,759.00
2023-05-15T23:38:55.599Z,758.00
2023-05-15T23:39:55.630Z,751.00
2023-05-15T23:40:55.661Z,750.00
2023-05-15T23:41:55.715Z,761.00
2023-05-15T23:42:55.765Z,757.00
2023-05-15T23:43:55.780Z,761.00
2023-05-15T23:44:55.835Z,756.00
2023-05-15T23:45:55.882Z,758.00
2023-05-15T23:46:55.947Z,751.00
2023-05-15T23:47:56.016Z,756.00
2023-05-15T23:48:56.035Z,757.00
2023-05-15T23:49:56.039Z,753.00
2023-05-15T23:50:56.110Z,752.00
2023-05-15T23:51:56.140Z,751.00
2023-05-15T23:52:56.193Z,745.00
2023-05-15T23:53:56.254Z,742.00
2023-05-15T23:54:56.290Z,758.00
2023-05-15T23:55:56.350Z,739.00
2023-05-15T23:56:56.350Z,739.00
2023-05-15T23:57:56.379Z,728.00
2023-05-15T23:58:56.433Z,718.00
2023-05-15T23:59:56.454Z,715.00
